sensor_id;sensor_type;location;lat;lon;timestamp;pressure;altitude;pressure_sealevel;temperature;humidity
9261;BME280;4667;42.726;23.252;2023-02-12T00:01:29;96230.53;;;0.55;nan
9261;BME280;4667;42.726;23.252;2023-02-12T00:03:55;96228.06;;;0.59;nan
9261;BME280;4667;42.726;23.252;2023-02-12T00:06:22;96238.00;;;0.67;nan
9261;BME280;4667;42.726;23.252;2023-02-12T00:08:50;96230.41;;;0.74;nan
9261;BME280;4667;42.726;23.252;2023-02-12T00:11:19;96234.66;;;0.61;nan
9261;BME280;4667;42.726;23.252;2023-02-12T00:13:48;96229.91;;;0.72;nan
9261;BME280;4667;42.726;23.252;2023-02-12T00:16:16;96229.13;;;0.71;nan
9261;BME280;4667;42.726;23.252;2023-02-12T00:18:43;96229.47;;;0.92;nan
9261;BME280;4667;42.726;23.252;2023-02-12T00:21:10;96228.34;;;0.71;nan
9261;BME280;4667;42.726;23.252;2023-02-12T00:23:39;96233.16;;;0.82;nan
9261;BME280;4667;42.726;23.252;2023-02-12T00:26:07;96225.53;;;0.90;nan
9261;BME280;4667;42.726;23.252;2023-02-12T00:28:34;96228.41;;;0.79;nan
9261;BME280;4667;42.726;23.252;2023-02-12T00:31:07;96225.44;;;0.95;nan
9261;BME280;4667;42.726;23.252;2023-02-12T00:33:33;96219.78;;;0.96;nan
9261;BME280;4667;42.726;23.252;2023-02-12T00:36:01;96208.00;;;1.11;nan
9261;BME280;4667;42.726;23.252;2023-02-12T00:38:29;96208.66;;;0.80;nan
9261;BME280;4667;42.726;23.252;2023-02-12T00:40:56;96202.66;;;1.11;nan
9261;BME280;4667;42.726;23.252;2023-02-12T00:43:23;96200.34;;;1.18;nan
9261;BME280;4667;42.726;23.252;2023-02-12T00:45:50;96200.16;;;1.14;nan
9261;BME280;4667;42.726;23.252;2023-02-12T00:48:18;96197.19;;;1.16;nan
9261;BME280;4667;42.726;23.252;2023-02-12T00:50:46;96178.63;;;1.11;nan
9261;BME280;4667;42.726;23.252;2023-02-12T00:53:14;96180.94;;;1.26;nan
9261;BME280;4667;42.726;23.252;2023-02-12T00:55:40;96184.63;;;1.16;nan
9261;BME280;4667;42.726;23.252;2023-02-12T00:58:08;96178.94;;;1.32;nan
9261;BME280;4667;42.726;23.252;2023-02-12T01:00:35;96163.56;;;1.37;nan
9261;BME280;4667;42.726;23.252;2023-02-12T01:03:02;96173.28;;;1.33;nan
9261;BME280;4667;42.726;23.252;2023-02-12T01:05:31;96180.44;;;1.46;nan
9261;BME280;4667;42.726;23.252;2023-02-12T01:07:58;96176.63;;;1.39;nan
9261;BME280;4667;42.726;23.252;2023-02-12T01:10:26;96184.47;;;1.35;nan
9261;BME280;4667;42.726;23.252;2023-02-12T01:12:53;96183.03;;;1.38;nan
9261;BME280;4667;42.726;23.252;2023-02-12T01:15:20;96176.59;;;1.30;nan
9261;BME280;4667;42.726;23.252;2023-02-12T01:17:50;96193.25;;;1.36;nan
9261;BME280;4667;42.726;23.252;2023-02-12T01:20:19;96188.22;;;1.34;nan
9261;BME280;4667;42.726;23.252;2023-02-12T01:22:48;96195.41;;;1.25;nan
9261;BME280;4667;42.726;23.252;2023-02-12T01:25:15;96200.59;;;1.30;nan
9261;BME280;4667;42.726;23.252;2023-02-12T01:27:42;96198.78;;;1.17;nan
9261;BME280;4667;42.726;23.252;2023-02-12T01:30:11;96193.16;;;1.18;nan
9261;BME280;4667;42.726;23.252;2023-02-12T01:32:38;96189.81;;;1.13;nan
9261;BME280;4667;42.726;23.252;2023-02-12T01:35:07;96189.22;;;1.02;nan
9261;BME280;4667;42.726;23.252;2023-02-12T01:37:35;96180.97;;;0.90;nan
9261;BME280;4667;42.726;23.252;2023-02-12T01:40:05;96176.00;;;0.75;nan
9261;BME280;4667;42.726;23.252;2023-02-12T01:42:33;96177.84;;;0.38;nan
9261;BME280;4667;42.726;23.252;2023-02-12T01:45:46;96165.59;;;0.51;nan
9261;BME280;4667;42.726;23.252;2023-02-12T01:48:16;96162.00;;;0.56;nan
9261;BME280;4667;42.726;23.252;2023-02-12T01:50:49;96167.97;;;0.25;nan
9261;BME280;4667;42.726;23.252;2023-02-12T01:53:19;96166.63;;;0.14;nan
9261;BME280;4667;42.726;23.252;2023-02-12T01:55:50;96169.78;;;0.03;nan
9261;BME280;4667;42.726;23.252;2023-02-12T01:58:19;96169.28;;;0.14;nan
9261;BME280;4667;42.726;23.252;2023-02-12T02:00:46;96167.81;;;0.22;nan
9261;BME280;4667;42.726;23.252;2023-02-12T02:03:13;96163.84;;;0.19;nan
9261;BME280;4667;42.726;23.252;2023-02-12T02:05:44;96162.56;;;0.03;nan
9261;BME280;4667;42.726;23.252;2023-02-12T02:08:13;96168.88;;;0.21;nan
9261;BME280;4667;42.726;23.252;2023-02-12T02:10:40;96171.25;;;0.22;nan
9261;BME280;4667;42.726;23.252;2023-02-12T02:13:08;96167.19;;;0.25;nan
9261;BME280;4667;42.726;23.252;2023-02-12T02:15:57;96157.03;;;0.27;nan
9261;BME280;4667;42.726;23.252;2023-02-12T02:18:31;96157.47;;;-0.07;nan
9261;BME280;4667;42.726;23.252;2023-02-12T02:24:23;96162.38;;;-0.14;nan
9261;BME280;4667;42.726;23.252;2023-02-12T02:27:13;96168.09;;;-0.21;nan
9261;BME280;4667;42.726;23.252;2023-02-12T02:29:49;96158.31;;;-0.39;nan
9261;BME280;4667;42.726;23.252;2023-02-12T02:32:26;96163.72;;;-0.44;nan
9261;BME280;4667;42.726;23.252;2023-02-12T02:34:58;96166.56;;;-0.41;nan
9261;BME280;4667;42.726;23.252;2023-02-12T02:37:31;96162.09;;;-0.13;nan
9261;BME280;4667;42.726;23.252;2023-02-12T02:40:03;96153.50;;;-0.10;nan
9261;BME280;4667;42.726;23.252;2023-02-12T02:42:36;96152.81;;;-0.02;nan
9261;BME280;4667;42.726;23.252;2023-02-12T02:45:07;96157.75;;;0.05;nan
9261;BME280;4667;42.726;23.252;2023-02-12T02:47:40;96154.69;;;0.12;nan
9261;BME280;4667;42.726;23.252;2023-02-12T02:50:12;96141.16;;;0.22;nan
9261;BME280;4667;42.726;23.252;2023-02-12T02:52:44;96151.88;;;0.30;nan
9261;BME280;4667;42.726;23.252;2023-02-12T02:55:15;96160.31;;;0.24;nan
9261;BME280;4667;42.726;23.252;2023-02-12T02:57:46;96149.56;;;0.15;nan
9261;BME280;4667;42.726;23.252;2023-02-12T03:00:19;96150.28;;;0.43;nan
9261;BME280;4667;42.726;23.252;2023-02-12T03:02:52;96152.72;;;0.17;nan
9261;BME280;4667;42.726;23.252;2023-02-12T03:05:23;96161.06;;;0.38;nan
9261;BME280;4667;42.726;23.252;2023-02-12T03:07:56;96164.63;;;0.47;nan
9261;BME280;4667;42.726;23.252;2023-02-12T03:10:26;96161.34;;;0.36;nan
9261;BME280;4667;42.726;23.252;2023-02-12T03:12:58;96162.81;;;0.43;nan
9261;BME280;4667;42.726;23.252;2023-02-12T03:15:31;96163.06;;;0.68;nan
9261;BME280;4667;42.726;23.252;2023-02-12T03:18:03;96163.34;;;0.80;nan
9261;BME280;4667;42.726;23.252;2023-02-12T03:20:35;96160.28;;;0.73;nan
9261;BME280;4667;42.726;23.252;2023-02-12T03:23:09;96161.50;;;0.90;nan
9261;BME280;4667;42.726;23.252;2023-02-12T03:25:41;96160.63;;;0.94;nan
9261;BME280;4667;42.726;23.252;2023-02-12T03:28:15;96148.31;;;0.85;nan
9261;BME280;4667;42.726;23.252;2023-02-12T03:30:48;96138.63;;;0.89;nan
9261;BME280;4667;42.726;23.252;2023-02-12T03:33:24;96151.16;;;1.10;nan
9261;BME280;4667;42.726;23.252;2023-02-12T03:35:57;96162.63;;;1.11;nan
9261;BME280;4667;42.726;23.252;2023-02-12T03:38:34;96150.91;;;1.20;nan
9261;BME280;4667;42.726;23.252;2023-02-12T03:41:05;96145.66;;;1.29;nan
9261;BME280;4667;42.726;23.252;2023-02-12T03:43:42;96141.56;;;1.32;nan
9261;BME280;4667;42.726;23.252;2023-02-12T03:46:18;96141.59;;;1.09;nan
9261;BME280;4667;42.726;23.252;2023-02-12T03:48:55;96139.25;;;1.39;nan
9261;BME280;4667;42.726;23.252;2023-02-12T03:51:29;96144.91;;;1.37;nan
9261;BME280;4667;42.726;23.252;2023-02-12T03:53:58;96138.56;;;1.55;nan
9261;BME280;4667;42.726;23.252;2023-02-12T03:56:31;96135.16;;;1.63;nan
9261;BME280;4667;42.726;23.252;2023-02-12T03:58:59;96142.66;;;1.53;nan
9261;BME280;4667;42.726;23.252;2023-02-12T04:01:26;96145.16;;;1.27;nan
9261;BME280;4667;42.726;23.252;2023-02-12T04:03:56;96143.03;;;1.15;nan
9261;BME280;4667;42.726;23.252;2023-02-12T04:06:26;96136.50;;;1.21;nan
9261;BME280;4667;42.726;23.252;2023-02-12T04:08:54;96131.34;;;1.25;nan
9261;BME280;4667;42.726;23.252;2023-02-12T04:11:29;96132.63;;;1.58;nan
9261;BME280;4667;42.726;23.252;2023-02-12T04:14:11;96144.59;;;1.39;nan
9261;BME280;4667;42.726;23.252;2023-02-12T04:16:44;96156.91;;;1.48;nan
9261;BME280;4667;42.726;23.252;2023-02-12T04:19:19;96162.84;;;1.45;nan
9261;BME280;4667;42.726;23.252;2023-02-12T04:21:57;96165.47;;;1.68;nan
9261;BME280;4667;42.726;23.252;2023-02-12T04:24:37;96149.47;;;1.68;nan
9261;BME280;4667;42.726;23.252;2023-02-12T04:27:13;96158.25;;;1.68;nan
9261;BME280;4667;42.726;23.252;2023-02-12T04:29:47;96161.56;;;1.65;nan
9261;BME280;4667;42.726;23.252;2023-02-12T04:32:19;96159.25;;;1.81;nan
9261;BME280;4667;42.726;23.252;2023-02-12T04:34:53;96163.66;;;1.77;nan
9261;BME280;4667;42.726;23.252;2023-02-12T04:37:25;96159.91;;;1.86;nan
9261;BME280;4667;42.726;23.252;2023-02-12T04:39:55;96168.13;;;1.90;nan
9261;BME280;4667;42.726;23.252;2023-02-12T04:42:23;96153.38;;;2.01;nan
9261;BME280;4667;42.726;23.252;2023-02-12T04:44:50;96168.56;;;1.92;nan
9261;BME280;4667;42.726;23.252;2023-02-12T04:47:16;96160.75;;;1.95;nan
9261;BME280;4667;42.726;23.252;2023-02-12T04:49:43;96174.69;;;1.84;nan
9261;BME280;4667;42.726;23.252;2023-02-12T04:52:11;96171.44;;;1.95;nan
9261;BME280;4667;42.726;23.252;2023-02-12T04:54:46;96175.59;;;1.79;nan
9261;BME280;4667;42.726;23.252;2023-02-12T04:57:13;96174.69;;;1.84;nan
9261;BME280;4667;42.726;23.252;2023-02-12T04:59:40;96179.16;;;1.66;nan
9261;BME280;4667;42.726;23.252;2023-02-12T05:02:07;96177.84;;;1.55;nan
9261;BME280;4667;42.726;23.252;2023-02-12T05:04:34;96189.88;;;1.75;nan
9261;BME280;4667;42.726;23.252;2023-02-12T05:07:02;96177.97;;;1.81;nan
9261;BME280;4667;42.726;23.252;2023-02-12T05:09:30;96192.50;;;1.44;nan
9261;BME280;4667;42.726;23.252;2023-02-12T05:11:57;96186.22;;;1.40;nan
9261;BME280;4667;42.726;23.252;2023-02-12T05:14:25;96191.97;;;1.33;nan
9261;BME280;4667;42.726;23.252;2023-02-12T05:16:52;96191.56;;;1.40;nan
9261;BME280;4667;42.726;23.252;2023-02-12T05:19:18;96196.59;;;1.41;nan
9261;BME280;4667;42.726;23.252;2023-02-12T05:21:45;96194.28;;;1.48;nan
9261;BME280;4667;42.726;23.252;2023-02-12T05:24:15;96196.63;;;1.50;nan
9261;BME280;4667;42.726;23.252;2023-02-12T05:26:43;96204.84;;;1.53;nan
9261;BME280;4667;42.726;23.252;2023-02-12T05:29:10;96201.72;;;1.38;nan
9261;BME280;4667;42.726;23.252;2023-02-12T05:31:38;96213.19;;;1.38;nan
9261;BME280;4667;42.726;23.252;2023-02-12T05:34:06;96214.50;;;1.41;nan
9261;BME280;4667;42.726;23.252;2023-02-12T05:36:35;96207.41;;;1.36;nan
9261;BME280;4667;42.726;23.252;2023-02-12T05:39:03;96211.19;;;1.44;nan
9261;BME280;4667;42.726;23.252;2023-02-12T05:41:30;96206.91;;;1.34;nan
9261;BME280;4667;42.726;23.252;2023-02-12T05:44:01;96212.81;;;1.09;nan
9261;BME280;4667;42.726;23.252;2023-02-12T05:46:28;96224.13;;;0.92;nan
9261;BME280;4667;42.726;23.252;2023-02-12T05:48:58;96227.47;;;0.98;nan
9261;BME280;4667;42.726;23.252;2023-02-12T05:51:25;96226.72;;;0.83;nan
9261;BME280;4667;42.726;23.252;2023-02-12T05:53:56;96220.75;;;0.64;nan
9261;BME280;4667;42.726;23.252;2023-02-12T05:56:26;96234.88;;;0.65;nan
9261;BME280;4667;42.726;23.252;2023-02-12T05:58:58;96236.84;;;0.59;nan
9261;BME280;4667;42.726;23.252;2023-02-12T06:01:29;96228.63;;;0.83;nan
9261;BME280;4667;42.726;23.252;2023-02-12T06:03:58;96243.34;;;0.67;nan
9261;BME280;4667;42.726;23.252;2023-02-12T06:06:25;96246.34;;;0.65;nan
9261;BME280;4667;42.726;23.252;2023-02-12T06:08:52;96234.63;;;0.89;nan
9261;BME280;4667;42.726;23.252;2023-02-12T06:11:19;96238.38;;;0.88;nan
9261;BME280;4667;42.726;23.252;2023-02-12T06:13:46;96238.81;;;0.67;nan
9261;BME280;4667;42.726;23.252;2023-02-12T06:16:17;96234.25;;;0.81;nan
9261;BME280;4667;42.726;23.252;2023-02-12T06:18:46;96236.91;;;0.95;nan
9261;BME280;4667;42.726;23.252;2023-02-12T06:21:13;96236.41;;;0.93;nan
9261;BME280;4667;42.726;23.252;2023-02-12T06:23:41;96231.09;;;0.79;nan
9261;BME280;4667;42.726;23.252;2023-02-12T06:26:09;96223.47;;;0.87;nan
9261;BME280;4667;42.726;23.252;2023-02-12T06:28:39;96221.34;;;0.97;nan
9261;BME280;4667;42.726;23.252;2023-02-12T06:31:16;96235.00;;;0.96;nan
9261;BME280;4667;42.726;23.252;2023-02-12T06:33:43;96221.25;;;1.02;nan
9261;BME280;4667;42.726;23.252;2023-02-12T06:36:11;96221.19;;;0.94;nan
9261;BME280;4667;42.726;23.252;2023-02-12T06:38:38;96228.28;;;0.98;nan
9261;BME280;4667;42.726;23.252;2023-02-12T06:41:04;96233.09;;;1.10;nan
9261;BME280;4667;42.726;23.252;2023-02-12T06:43:31;96236.56;;;0.97;nan
9261;BME280;4667;42.726;23.252;2023-02-12T06:46:00;96235.03;;;0.82;nan
9261;BME280;4667;42.726;23.252;2023-02-12T06:48:30;96231.59;;;0.81;nan
9261;BME280;4667;42.726;23.252;2023-02-12T06:51:03;96236.41;;;0.79;nan
9261;BME280;4667;42.726;23.252;2023-02-12T06:53:33;96243.06;;;0.68;nan
9261;BME280;4667;42.726;23.252;2023-02-12T06:56:01;96240.25;;;0.87;nan
9261;BME280;4667;42.726;23.252;2023-02-12T06:58:28;96235.84;;;0.82;nan
9261;BME280;4667;42.726;23.252;2023-02-12T07:01:07;96240.53;;;0.99;nan
9261;BME280;4667;42.726;23.252;2023-02-12T07:03:35;96243.88;;;1.05;nan
9261;BME280;4667;42.726;23.252;2023-02-12T07:06:04;96239.63;;;1.26;nan
9261;BME280;4667;42.726;23.252;2023-02-12T07:08:42;96238.72;;;1.08;nan
9261;BME280;4667;42.726;23.252;2023-02-12T07:11:25;96244.56;;;1.33;nan
9261;BME280;4667;42.726;23.252;2023-02-12T07:13:55;96230.97;;;1.20;nan
9261;BME280;4667;42.726;23.252;2023-02-12T07:16:26;96238.09;;;1.47;nan
9261;BME280;4667;42.726;23.252;2023-02-12T07:19:00;96239.44;;;1.36;nan
9261;BME280;4667;42.726;23.252;2023-02-12T07:21:29;96245.09;;;1.43;nan
9261;BME280;4667;42.726;23.252;2023-02-12T07:24:00;96242.81;;;1.28;nan
9261;BME280;4667;42.726;23.252;2023-02-12T07:26:26;96252.28;;;1.56;nan
9261;BME280;4667;42.726;23.252;2023-02-12T07:29:13;96257.13;;;1.77;nan
9261;BME280;4667;42.726;23.252;2023-02-12T07:31:40;96265.13;;;1.77;nan
9261;BME280;4667;42.726;23.252;2023-02-12T07:34:08;96264.53;;;1.80;nan
9261;BME280;4667;42.726;23.252;2023-02-12T07:36:36;96270.84;;;1.84;nan
9261;BME280;4667;42.726;23.252;2023-02-12T07:39:04;96265.97;;;1.86;nan
9261;BME280;4667;42.726;23.252;2023-02-12T07:41:33;96270.47;;;1.77;nan
9261;BME280;4667;42.726;23.252;2023-02-12T07:44:03;96262.03;;;1.83;nan
9261;BME280;4667;42.726;23.252;2023-02-12T07:46:33;96276.25;;;1.70;nan
9261;BME280;4667;42.726;23.252;2023-02-12T07:49:02;96274.84;;;1.50;nan
9261;BME280;4667;42.726;23.252;2023-02-12T07:51:30;96277.16;;;1.66;nan
9261;BME280;4667;42.726;23.252;2023-02-12T07:53:58;96270.41;;;1.68;nan
9261;BME280;4667;42.726;23.252;2023-02-12T07:56:28;96271.94;;;1.83;nan
9261;BME280;4667;42.726;23.252;2023-02-12T07:58:58;96274.59;;;1.83;nan
9261;BME280;4667;42.726;23.252;2023-02-12T08:01:26;96278.59;;;1.94;nan
9261;BME280;4667;42.726;23.252;2023-02-12T08:03:57;96275.63;;;1.73;nan
9261;BME280;4667;42.726;23.252;2023-02-12T08:06:34;96268.16;;;1.61;nan
9261;BME280;4667;42.726;23.252;2023-02-12T08:09:13;96282.56;;;1.74;nan
9261;BME280;4667;42.726;23.252;2023-02-12T08:11:45;96276.66;;;1.86;nan
9261;BME280;4667;42.726;23.252;2023-02-12T08:14:16;96276.00;;;2.02;nan
9261;BME280;4667;42.726;23.252;2023-02-12T08:16:44;96281.66;;;2.10;nan
9261;BME280;4667;42.726;23.252;2023-02-12T08:19:12;96276.38;;;2.18;nan
9261;BME280;4667;42.726;23.252;2023-02-12T08:21:39;96277.09;;;2.01;nan
9261;BME280;4667;42.726;23.252;2023-02-12T08:24:19;96279.88;;;2.27;nan
9261;BME280;4667;42.726;23.252;2023-02-12T08:26:52;96290.31;;;2.07;nan
9261;BME280;4667;42.726;23.252;2023-02-12T08:29:27;96290.66;;;2.14;nan
9261;BME280;4667;42.726;23.252;2023-02-12T08:31:59;96295.13;;;1.96;nan
9261;BME280;4667;42.726;23.252;2023-02-12T08:34:28;96293.19;;;1.88;nan
9261;BME280;4667;42.726;23.252;2023-02-12T08:36:59;96287.16;;;1.82;nan
9261;BME280;4667;42.726;23.252;2023-02-12T08:39:28;96297.56;;;1.84;nan
9261;BME280;4667;42.726;23.252;2023-02-12T08:42:00;96290.56;;;1.74;nan
9261;BME280;4667;42.726;23.252;2023-02-12T08:44:30;96308.56;;;1.91;nan
9261;BME280;4667;42.726;23.252;2023-02-12T08:46:58;96304.91;;;2.09;nan
9261;BME280;4667;42.726;23.252;2023-02-12T08:49:31;96312.69;;;1.97;nan
9261;BME280;4667;42.726;23.252;2023-02-12T08:52:01;96308.00;;;1.94;nan
9261;BME280;4667;42.726;23.252;2023-02-12T08:54:34;96309.47;;;2.09;nan
9261;BME280;4667;42.726;23.252;2023-02-12T08:57:16;96311.69;;;2.07;nan
9261;BME280;4667;42.726;23.252;2023-02-12T08:59:44;96303.97;;;2.05;nan
9261;BME280;4667;42.726;23.252;2023-02-12T09:02:15;96307.16;;;2.16;nan
9261;BME280;4667;42.726;23.252;2023-02-12T09:04:51;96305.91;;;2.13;nan
9261;BME280;4667;42.726;23.252;2023-02-12T09:07:20;96314.16;;;2.25;nan
9261;BME280;4667;42.726;23.252;2023-02-12T09:09:50;96315.75;;;2.04;nan
9261;BME280;4667;42.726;23.252;2023-02-12T09:12:38;96321.69;;;2.23;nan
9261;BME280;4667;42.726;23.252;2023-02-12T09:15:06;96321.19;;;2.21;nan
9261;BME280;4667;42.726;23.252;2023-02-12T09:17:34;96325.56;;;2.17;nan
9261;BME280;4667;42.726;23.252;2023-02-12T09:20:04;96325.06;;;2.15;nan
9261;BME280;4667;42.726;23.252;2023-02-12T09:22:32;96317.41;;;2.22;nan
9261;BME280;4667;42.726;23.252;2023-02-12T09:25:05;96330.19;;;2.25;nan
9261;BME280;4667;42.726;23.252;2023-02-12T09:27:32;96328.25;;;2.17;nan
9261;BME280;4667;42.726;23.252;2023-02-12T09:30:01;96328.88;;;2.14;nan
9261;BME280;4667;42.726;23.252;2023-02-12T09:32:28;96333.84;;;2.07;nan
9261;BME280;4667;42.726;23.252;2023-02-12T09:34:55;96323.38;;;1.97;nan
9261;BME280;4667;42.726;23.252;2023-02-12T09:37:31;96335.06;;;2.01;nan
9261;BME280;4667;42.726;23.252;2023-02-12T09:39:58;96333.72;;;2.12;nan
9261;BME280;4667;42.726;23.252;2023-02-12T09:42:38;96334.69;;;2.16;nan
9261;BME280;4667;42.726;23.252;2023-02-12T09:45:17;96327.03;;;2.23;nan
9261;BME280;4667;42.726;23.252;2023-02-12T09:47:51;96328.59;;;2.24;nan
9261;BME280;4667;42.726;23.252;2023-02-12T09:50:33;96337.72;;;2.23;nan
9261;BME280;4667;42.726;23.252;2023-02-12T09:53:03;96348.00;;;2.38;nan
9261;BME280;4667;42.726;23.252;2023-02-12T09:55:33;96342.56;;;2.52;nan
9261;BME280;4667;42.726;23.252;2023-02-12T09:58:01;96342.34;;;2.40;nan
9261;BME280;4667;42.726;23.252;2023-02-12T10:00:31;96348.34;;;2.68;nan
9261;BME280;4667;42.726;23.252;2023-02-12T10:03:00;96356.81;;;2.70;nan
9261;BME280;4667;42.726;23.252;2023-02-12T10:05:32;96356.88;;;2.87;nan
9261;BME280;4667;42.726;23.252;2023-02-12T10:08:12;96352.97;;;2.93;nan
9261;BME280;4667;42.726;23.252;2023-02-12T10:10:50;96350.16;;;2.59;nan
9261;BME280;4667;42.726;23.252;2023-02-12T10:13:27;96361.06;;;2.71;nan
9261;BME280;4667;42.726;23.252;2023-02-12T10:16:08;96359.56;;;2.47;nan
9261;BME280;4667;42.726;23.252;2023-02-12T10:19:10;96349.94;;;2.46;nan
9261;BME280;4667;42.726;23.252;2023-02-12T10:21:48;96348.50;;;2.40;nan
9261;BME280;4667;42.726;23.252;2023-02-12T10:24:52;96348.19;;;2.73;nan
9261;BME280;4667;42.726;23.252;2023-02-12T10:27:33;96347.81;;;2.97;nan
9261;BME280;4667;42.726;23.252;2023-02-12T10:30:03;96344.22;;;3.18;nan
9261;BME280;4667;42.726;23.252;2023-02-12T10:32:42;96341.94;;;3.60;nan
9261;BME280;4667;42.726;23.252;2023-02-12T10:35:15;96335.94;;;3.63;nan
9261;BME280;4667;42.726;23.252;2023-02-12T10:37:48;96336.06;;;4.01;nan
9261;BME280;4667;42.726;23.252;2023-02-12T10:40:19;96320.75;;;4.27;nan
9261;BME280;4667;42.726;23.252;2023-02-12T10:42:51;96330.06;;;4.76;nan
9261;BME280;4667;42.726;23.252;2023-02-12T10:45:21;96333.19;;;5.16;nan
9261;BME280;4667;42.726;23.252;2023-02-12T10:47:53;96333.28;;;5.28;nan
9261;BME280;4667;42.726;23.252;2023-02-12T10:53:21;96336.34;;;5.89;nan
9261;BME280;4667;42.726;23.252;2023-02-12T10:55:49;96336.25;;;5.77;nan
9261;BME280;4667;42.726;23.252;2023-02-12T10:58:19;96333.16;;;5.46;nan
9261;BME280;4667;42.726;23.252;2023-02-12T11:00:55;96327.91;;;5.49;nan
9261;BME280;4667;42.726;23.252;2023-02-12T11:03:29;96335.81;;;5.25;nan
9261;BME280;4667;42.726;23.252;2023-02-12T11:06:10;96331.78;;;5.40;nan
9261;BME280;4667;42.726;23.252;2023-02-12T11:08:46;96329.78;;;5.28;nan
9261;BME280;4667;42.726;23.252;2023-02-12T11:11:15;96328.59;;;4.87;nan
9261;BME280;4667;42.726;23.252;2023-02-12T11:13:47;96325.13;;;4.87;nan
9261;BME280;4667;42.726;23.252;2023-02-12T11:16:27;96329.28;;;5.05;nan
9261;BME280;4667;42.726;23.252;2023-02-12T11:19:02;96333.78;;;5.22;nan
9261;BME280;4667;42.726;23.252;2023-02-12T11:21:30;96336.63;;;5.46;nan
9261;BME280;4667;42.726;23.252;2023-02-12T11:24:25;96323.63;;;5.48;nan
9261;BME280;4667;42.726;23.252;2023-02-12T11:27:10;96324.03;;;5.80;nan
9261;BME280;4667;42.726;23.252;2023-02-12T11:29:38;96319.53;;;5.92;nan
9261;BME280;4667;42.726;23.252;2023-02-12T11:32:07;96318.19;;;6.19;nan
9261;BME280;4667;42.726;23.252;2023-02-12T11:34:36;96327.28;;;6.72;nan
9261;BME280;4667;42.726;23.252;2023-02-12T11:37:13;96334.84;;;6.90;nan
9261;BME280;4667;42.726;23.252;2023-02-12T11:39:45;96339.13;;;6.46;nan
9261;BME280;4667;42.726;23.252;2023-02-12T11:42:16;96326.41;;;6.35;nan
9261;BME280;4667;42.726;23.252;2023-02-12T11:44:49;96331.94;;;6.50;nan
9261;BME280;4667;42.726;23.252;2023-02-12T11:47:19;96332.66;;;5.52;nan
9261;BME280;4667;42.726;23.252;2023-02-12T11:49:51;96326.13;;;5.32;nan
9261;BME280;4667;42.726;23.252;2023-02-12T11:52:35;96328.25;;;5.68;nan
9261;BME280;4667;42.726;23.252;2023-02-12T11:55:06;96319.59;;;5.84;nan
9261;BME280;4667;42.726;23.252;2023-02-12T11:57:38;96324.31;;;5.87;nan
9261;BME280;4667;42.726;23.252;2023-02-12T12:00:14;96329.56;;;5.83;nan
9261;BME280;4667;42.726;23.252;2023-02-12T12:02:43;96325.97;;;6.00;nan
9261;BME280;4667;42.726;23.252;2023-02-12T12:05:15;96324.75;;;6.09;nan
9261;BME280;4667;42.726;23.252;2023-02-12T12:07:46;96336.56;;;6.17;nan
9261;BME280;4667;42.726;23.252;2023-02-12T12:10:19;96331.66;;;5.98;nan
9261;BME280;4667;42.726;23.252;2023-02-12T12:12:49;96338.22;;;6.09;nan
9261;BME280;4667;42.726;23.252;2023-02-12T12:15:21;96333.16;;;6.08;nan
9261;BME280;4667;42.726;23.252;2023-02-12T12:18:15;96322.22;;;5.92;nan
9261;BME280;4667;42.726;23.252;2023-02-12T12:21:10;96337.97;;;5.82;nan
9261;BME280;4667;42.726;23.252;2023-02-12T12:23:43;96331.00;;;5.81;nan
9261;BME280;4667;42.726;23.252;2023-02-12T12:26:14;96323.06;;;6.05;nan
9261;BME280;4667;42.726;23.252;2023-02-12T12:28:47;96329.09;;;5.81;nan
9261;BME280;4667;42.726;23.252;2023-02-12T12:31:18;96331.66;;;5.78;nan
9261;BME280;4667;42.726;23.252;2023-02-12T12:33:48;96336.66;;;5.88;nan
9261;BME280;4667;42.726;23.252;2023-02-12T12:36:44;96333.72;;;6.01;nan
9261;BME280;4667;42.726;23.252;2023-02-12T12:39:24;96336.72;;;6.00;nan
9261;BME280;4667;42.726;23.252;2023-02-12T12:42:10;96347.13;;;5.81;nan
9261;BME280;4667;42.726;23.252;2023-02-12T12:44:54;96345.31;;;5.93;nan
9261;BME280;4667;42.726;23.252;2023-02-12T12:47:46;96331.66;;;6.19;nan
9261;BME280;4667;42.726;23.252;2023-02-12T12:50:31;96332.31;;;5.74;nan
9261;BME280;4667;42.726;23.252;2023-02-12T12:53:18;96340.16;;;5.38;nan
9261;BME280;4667;42.726;23.252;2023-02-12T12:56:26;96347.22;;;5.22;nan
9261;BME280;4667;42.726;23.252;2023-02-12T12:59:11;96346.81;;;5.32;nan
9261;BME280;4667;42.726;23.252;2023-02-12T13:01:56;96360.34;;;5.44;nan
9261;BME280;4667;42.726;23.252;2023-02-12T13:04:40;96357.25;;;5.33;nan
9261;BME280;4667;42.726;23.252;2023-02-12T13:07:24;96361.81;;;5.42;nan
9261;BME280;4667;42.726;23.252;2023-02-12T13:10:10;96352.16;;;5.61;nan
9261;BME280;4667;42.726;23.252;2023-02-12T13:12:58;96352.38;;;5.56;nan
9261;BME280;4667;42.726;23.252;2023-02-12T13:15:35;96366.19;;;5.46;nan
9261;BME280;4667;42.726;23.252;2023-02-12T13:18:13;96375.31;;;5.54;nan
9261;BME280;4667;42.726;23.252;2023-02-12T13:20:49;96373.44;;;5.75;nan
9261;BME280;4667;42.726;23.252;2023-02-12T13:23:28;96359.78;;;5.80;nan
9261;BME280;4667;42.726;23.252;2023-02-12T13:26:13;96365.63;;;6.03;nan
9261;BME280;4667;42.726;23.252;2023-02-12T13:28:46;96368.75;;;5.84;nan
9261;BME280;4667;42.726;23.252;2023-02-12T13:31:19;96362.94;;;6.03;nan
9261;BME280;4667;42.726;23.252;2023-02-12T13:33:49;96359.66;;;6.18;nan
9261;BME280;4667;42.726;23.252;2023-02-12T13:36:18;96373.47;;;5.96;nan
9261;BME280;4667;42.726;23.252;2023-02-12T13:38:48;96371.44;;;5.93;nan
9261;BME280;4667;42.726;23.252;2023-02-12T13:41:19;96370.50;;;5.89;nan
9261;BME280;4667;42.726;23.252;2023-02-12T13:44:00;96374.22;;;5.75;nan
9261;BME280;4667;42.726;23.252;2023-02-12T13:46:34;96379.28;;;5.77;nan
9261;BME280;4667;42.726;23.252;2023-02-12T13:49:16;96369.59;;;5.55;nan
9261;BME280;4667;42.726;23.252;2023-02-12T13:51:51;96381.97;;;5.77;nan
9261;BME280;4667;42.726;23.252;2023-02-12T13:54:38;96372.44;;;5.59;nan
9261;BME280;4667;42.726;23.252;2023-02-12T13:57:13;96385.59;;;5.52;nan
9261;BME280;4667;42.726;23.252;2023-02-12T13:59:48;96386.22;;;5.49;nan
9261;BME280;4667;42.726;23.252;2023-02-12T14:02:41;96396.34;;;5.52;nan
9261;BME280;4667;42.726;23.252;2023-02-12T14:05:32;96405.19;;;5.52;nan
9261;BME280;4667;42.726;23.252;2023-02-12T14:08:02;96410.31;;;5.37;nan
9261;BME280;4667;42.726;23.252;2023-02-12T14:10:33;96410.06;;;5.29;nan
9261;BME280;4667;42.726;23.252;2023-02-12T14:13:27;96416.53;;;5.28;nan
9261;BME280;4667;42.726;23.252;2023-02-12T14:16:20;96420.94;;;5.33;nan
9261;BME280;4667;42.726;23.252;2023-02-12T14:22:00;96422.41;;;5.22;nan
9261;BME280;4667;42.726;23.252;2023-02-12T14:24:49;96418.66;;;5.14;nan